Time;durP1;ratioP1;P1;durP2;ratioP2;P2;SDS_P1;SDS_P2;PMS_P1;PMS_P2;Temp;Humidity;BMP_temperature;BMP_pressure;BME280_temperature;BME280_humidity;BME280_pressure;Samples;Min_cycle;Max_cycle;Signal;HPM_P1;HPM_P2
2022/06/27 00:01:25;;;;;;;11.80;9.48;;;16.40;99.90;;;;;;5065921;28;20048;-37
2022/06/27 00:03:50;;;;;;;11.95;9.68;;;16.40;99.90;;;;;;5066062;28;20532;-38
2022/06/27 00:06:19;;;;;;;12.35;10.45;;;16.40;99.90;;;;;;5065574;28;20425;-37
2022/06/27 00:08:49;;;;;;;10.73;9.63;;;16.60;99.90;;;;;;5066023;28;20044;-37
2022/06/27 00:11:16;;;;;;;11.70;10.50;;;16.50;99.90;;;;;;5066234;28;20044;-37
2022/06/27 00:13:42;;;;;;;11.85;10.65;;;16.40;99.90;;;;;;5065940;28;20041;-38
2022/06/27 00:16:08;;;;;;;12.10;10.45;;;16.30;99.90;;;;;;5066210;28;20094;-37
2022/06/27 00:18:33;;;;;;;11.82;10.60;;;16.40;99.90;;;;;;5065754;28;20044;-37
2022/06/27 00:20:59;;;;;;;12.85;11.57;;;16.70;99.90;;;;;;5067918;28;20036;-37
2022/06/27 00:23:25;;;;;;;12.50;11.20;;;16.60;99.90;;;;;;5069347;28;20413;-37
2022/06/27 00:25:50;;;;;;;13.13;11.73;;;16.30;99.90;;;;;;5069472;28;20090;-37
2022/06/27 00:28:16;;;;;;;13.02;11.68;;;16.40;99.90;;;;;;5069263;28;20053;-37
2022/06/27 00:30:43;;;;;;;13.15;11.82;;;16.40;99.90;;;;;;5067318;28;20044;-37
2022/06/27 00:33:08;;;;;;;15.38;12.07;;;16.30;99.90;;;;;;5069359;28;20543;-37
2022/06/27 00:35:34;;;;;;;13.82;11.98;;;16.30;99.90;;;;;;5069138;28;20127;-37
2022/06/27 00:38:00;;;;;;;13.10;11.60;;;16.30;99.90;;;;;;5069338;28;20045;-37
2022/06/27 00:40:26;;;;;;;14.07;12.23;;;16.30;99.90;;;;;;5069357;28;20053;-37
2022/06/27 00:42:51;;;;;;;15.52;12.77;;;16.30;99.90;;;;;;5068793;28;20281;-37
2022/06/27 00:45:17;;;;;;;12.77;11.43;;;16.50;99.90;;;;;;5069382;28;20045;-38
2022/06/27 00:47:43;;;;;;;13.75;10.90;;;16.20;99.90;;;;;;5069316;28;20052;-37
2022/06/27 00:50:09;;;;;;;15.23;11.50;;;16.50;99.90;;;;;;5069647;28;20041;-37
2022/06/27 00:52:35;;;;;;;13.23;11.68;;;16.30;99.90;;;;;;5067563;28;20083;-37
2022/06/27 00:55:02;;;;;;;12.73;11.50;;;16.20;99.90;;;;;;5070161;28;20047;-37
2022/06/27 00:57:28;;;;;;;13.52;12.15;;;16.20;99.90;;;;;;5069021;28;20315;-37
2022/06/27 00:59:54;;;;;;;12.85;11.43;;;16.30;99.90;;;;;;5068942;28;20072;-37
2022/06/27 01:02:20;;;;;;;13.13;11.77;;;16.80;99.90;;;;;;5068434;28;20052;-37
2022/06/27 01:04:46;;;;;;;15.95;12.48;;;16.20;99.90;;;;;;5068677;28;20044;-37
2022/06/27 01:07:12;;;;;;;14.40;11.43;;;16.10;99.90;;;;;;5068208;28;20063;-38
2022/06/27 01:09:38;;;;;;;13.55;12.25;;;16.40;99.90;;;;;;5068967;28;20079;-38
2022/06/27 01:12:05;;;;;;;12.23;11.13;;;15.90;99.90;;;;;;5068642;28;20036;-37
2022/06/27 01:14:31;;;;;;;14.68;11.75;;;16.20;99.90;;;;;;5068611;28;20040;-37
2022/06/27 01:16:57;;;;;;;13.85;12.35;;;16.20;99.90;;;;;;5068425;28;20146;-37
2022/06/27 01:19:23;;;;;;;15.00;12.45;;;16.40;99.90;;;;;;5068692;28;20113;-37
2022/06/27 01:21:54;;;;;;;14.60;13.13;;;16.20;99.90;;;;;;5068886;28;20044;-37
2022/06/27 01:24:23;;;;;;;13.70;12.18;;;16.20;99.90;;;;;;5068589;28;20045;-38
2022/06/27 01:26:50;;;;;;;14.50;13.05;;;16.20;99.90;;;;;;5068574;28;20042;-37
2022/06/27 01:29:16;;;;;;;17.27;13.32;;;16.20;99.90;;;;;;5068519;28;20371;-37
2022/06/27 01:31:42;;;;;;;14.73;12.18;;;16.20;99.90;;;;;;5068249;28;20093;-37
2022/06/27 01:34:09;;;;;;;14.45;11.75;;;16.20;99.90;;;;;;5068090;28;20546;-37
2022/06/27 01:36:44;;;;;;;16.13;11.95;;;16.10;99.90;;;;;;5068408;28;20389;-38
2022/06/27 01:39:12;;;;;;;15.18;11.82;;;16.30;99.90;;;;;;5068772;28;20191;-38
2022/06/27 01:41:40;;;;;;;13.40;11.80;;;16.10;99.90;;;;;;5067950;28;20127;-39
2022/06/27 01:44:08;;;;;;;22.15;11.52;;;16.20;99.90;;;;;;5066377;28;20053;-38
2022/06/27 01:46:52;;;;;;;17.17;13.63;;;16.20;99.90;;;;;;5067819;28;20041;-38
2022/06/27 01:49:18;;;;;;;15.27;13.00;;;16.30;99.90;;;;;;5068072;28;20044;-37
2022/06/27 01:51:48;;;;;;;21.40;14.13;;;16.10;99.90;;;;;;5067765;28;20041;-37
2022/06/27 01:54:17;;;;;;;15.50;12.80;;;16.30;99.90;;;;;;5068233;28;20492;-37
2022/06/27 01:56:46;;;;;;;15.95;12.95;;;16.40;99.90;;;;;;5068199;28;20044;-37
2022/06/27 01:59:13;;;;;;;17.50;13.25;;;16.60;99.90;;;;;;5068115;28;20052;-37
2022/06/27 02:01:40;;;;;;;17.95;12.55;;;16.10;99.90;;;;;;5068037;28;20045;-38
2022/06/27 02:04:05;;;;;;;15.27;13.15;;;16.40;99.90;;;;;;5067555;28;20119;-37
2022/06/27 02:06:31;;;;;;;15.07;13.30;;;16.00;99.90;;;;;;5068105;28;20481;-37
2022/06/27 02:08:58;;;;;;;18.08;13.02;;;16.30;99.90;;;;;;5067930;28;20048;-37
2022/06/27 02:11:25;;;;;;;15.50;13.15;;;16.00;99.90;;;;;;5068345;28;20550;-37
2022/06/27 02:13:53;;;;;;;15.77;13.18;;;15.90;99.90;;;;;;5065908;28;20048;-37
2022/06/27 02:16:19;;;;;;;22.42;14.32;;;15.90;99.90;;;;;;5067868;28;20393;-37
2022/06/27 02:18:46;;;;;;;16.77;14.18;;;15.90;99.90;;;;;;5067171;28;20490;-37
2022/06/27 02:21:25;;;;;;;18.27;14.00;;;15.90;99.90;;;;;;5067481;28;20045;-37
2022/06/27 02:23:52;;;;;;;17.75;14.30;;;15.90;99.90;;;;;;5067241;28;20474;-39
2022/06/27 02:26:23;;;;;;;19.52;15.10;;;15.90;99.90;;;;;;5067768;28;20068;-37
2022/06/27 02:28:50;;;;;;;27.08;16.73;;;15.80;99.90;;;;;;5067240;28;20036;-38
2022/06/27 02:31:15;;;;;;;24.02;16.95;;;15.80;99.90;;;;;;5066796;28;20106;-37
2022/06/27 02:33:44;;;;;;;22.50;17.00;;;15.90;99.90;;;;;;5067009;28;20478;-37
2022/06/27 02:36:13;;;;;;;19.88;15.98;;;15.80;99.90;;;;;;5067680;28;20469;-37
2022/06/27 02:38:40;;;;;;;25.70;17.08;;;15.80;99.90;;;;;;5067500;28;20123;-37
2022/06/27 02:41:09;;;;;;;27.65;17.15;;;16.20;99.90;;;;;;5067309;28;20048;-38
2022/06/27 02:43:37;;;;;;;32.58;19.10;;;15.80;99.90;;;;;;5066245;28;20040;-37
2022/06/27 02:46:03;;;;;;;32.08;19.67;;;15.80;99.90;;;;;;5067157;28;20056;-37
2022/06/27 02:48:32;;;;;;;34.88;19.98;;;15.80;99.90;;;;;;5066848;28;20048;-37
2022/06/27 02:51:04;;;;;;;29.98;19.23;;;15.80;99.90;;;;;;5067107;28;20758;-37
2022/06/27 02:53:39;;;;;;;38.92;21.90;;;15.80;99.90;;;;;;5065526;28;20375;-38
2022/06/27 02:56:09;;;;;;;45.38;23.25;;;16.10;99.90;;;;;;5066995;28;20072;-37
2022/06/27 02:59:03;;;;;;;33.80;21.33;;;15.70;99.90;;;;;;5067068;28;20414;-38
2022/06/27 03:01:30;;;;;;;35.75;22.90;;;15.70;99.90;;;;;;5063022;28;20550;-37
2022/06/27 03:04:00;;;;;;;48.20;24.48;;;15.70;99.90;;;;;;5064660;28;20498;-37
2022/06/27 03:06:27;;;;;;;42.95;22.65;;;16.30;99.90;;;;;;5067061;28;20060;-38
2022/06/27 03:08:53;;;;;;;40.58;23.15;;;15.60;99.90;;;;;;5067004;28;20048;-37
2022/06/27 03:11:21;;;;;;;36.10;21.77;;;16.20;99.90;;;;;;5066773;28;20042;-38
2022/06/27 03:13:48;;;;;;;33.25;19.38;;;15.60;99.90;;;;;;5067009;28;20048;-37
2022/06/27 03:16:15;;;;;;;26.83;16.73;;;15.70;99.90;;;;;;5066852;28;20037;-37
2022/06/27 03:18:41;;;;;;;24.83;16.38;;;15.70;99.90;;;;;;5067429;28;20163;-38
2022/06/27 03:21:07;;;;;;;26.60;17.42;;;15.60;99.90;;;;;;5066696;28;20044;-37
2022/06/27 03:23:33;;;;;;;24.63;17.55;;;15.50;99.90;;;;;;5067005;28;20044;-37
2022/06/27 03:26:00;;;;;;;29.85;18.45;;;15.50;99.90;;;;;;5067158;28;20033;-37
2022/06/27 03:28:25;;;;;;;27.98;18.02;;;15.50;99.90;;;;;;5067027;28;20068;-37
2022/06/27 03:30:51;;;;;;;28.95;16.92;;;15.50;99.90;;;;;;5065780;28;20093;-37
2022/06/27 03:33:17;;;;;;;22.17;15.95;;;15.50;99.90;;;;;;5066170;28;20036;-37
2022/06/27 03:35:43;;;;;;;20.00;14.90;;;15.50;99.90;;;;;;5066629;28;20041;-37
2022/06/27 03:38:12;;;;;;;24.13;14.15;;;15.80;99.90;;;;;;5066816;28;20036;-37
2022/06/27 03:40:38;;;;;;;12.98;10.25;;;15.40;99.90;;;;;;5066454;28;20064;-37
2022/06/27 03:43:04;;;;;;;8.60;6.88;;;15.40;99.90;;;;;;5066598;28;20742;-38
2022/06/27 03:45:30;;;;;;;6.60;5.20;;;15.40;99.90;;;;;;5066736;28;20044;-37
2022/06/27 03:47:58;;;;;;;5.85;4.30;;;15.40;99.90;;;;;;5066609;28;20037;-38
2022/06/27 03:50:24;;;;;;;5.20;3.17;;;15.10;99.90;;;;;;5066714;28;20391;-38
2022/06/27 03:52:51;;;;;;;7.15;4.22;;;15.50;99.90;;;;;;5066613;28;20047;-38
2022/06/27 03:55:16;;;;;;;7.25;4.65;;;15.10;99.90;;;;;;5067022;28;20044;-38
2022/06/27 03:57:53;;;;;;;8.18;5.15;;;14.70;99.90;;;;;;5070230;28;20043;-38
2022/06/27 04:00:21;;;;;;;9.52;5.22;;;14.60;99.90;;;;;;5070277;28;20091;-38
2022/06/27 04:02:47;;;;;;;9.48;4.78;;;14.80;99.90;;;;;;5070082;28;20113;-38
2022/06/27 04:05:13;;;;;;;9.77;6.15;;;14.80;99.90;;;;;;5070472;28;20040;-38
2022/06/27 04:07:39;;;;;;;8.27;5.07;;;14.50;99.90;;;;;;5069703;28;20117;-38
2022/06/27 04:10:10;;;;;;;8.00;5.05;;;14.70;99.90;;;;;;5070601;28;20087;-38
2022/06/27 04:12:36;;;;;;;9.70;6.10;;;14.50;99.90;;;;;;5070574;28;20048;-38
2022/06/27 04:15:04;;;;;;;14.02;6.22;;;14.80;99.90;;;;;;5070349;28;20044;-38
2022/06/27 04:17:30;;;;;;;10.60;5.75;;;14.40;99.90;;;;;;5069483;28;20049;-38
2022/06/27 04:19:56;;;;;;;9.18;5.90;;;14.40;99.90;;;;;;5070308;28;20409;-38
2022/06/27 04:22:22;;;;;;;7.47;5.05;;;14.70;99.90;;;;;;5069830;28;20054;-38
2022/06/27 04:24:48;;;;;;;8.55;5.45;;;14.50;99.90;;;;;;5069908;28;20466;-38
2022/06/27 04:27:17;;;;;;;9.27;5.80;;;14.50;99.90;;;;;;5069326;28;20463;-38
2022/06/27 04:29:43;;;;;;;7.53;5.30;;;14.90;99.90;;;;;;5070193;28;20456;-37
2022/06/27 04:32:09;;;;;;;9.68;5.93;;;14.50;99.90;;;;;;5070383;28;20043;-37
2022/06/27 04:34:36;;;;;;;12.68;7.18;;;14.50;99.90;;;;;;5067944;28;20119;-37
2022/06/27 04:37:03;;;;;;;12.38;7.13;;;14.70;99.90;;;;;;5069442;28;20131;-38
2022/06/27 04:39:30;;;;;;;9.32;5.95;;;14.40;99.90;;;;;;5069557;28;20040;-37
2022/06/27 04:41:56;;;;;;;13.45;7.03;;;14.40;99.90;;;;;;5069799;28;20078;-38
2022/06/27 04:44:21;;;;;;;10.77;6.68;;;14.40;99.90;;;;;;5068140;28;20040;-37
2022/06/27 04:46:47;;;;;;;9.13;6.43;;;14.90;99.90;;;;;;5070043;28;20056;-37
2022/06/27 04:49:14;;;;;;;10.82;6.35;;;14.50;99.90;;;;;;5069043;28;20036;-38
2022/06/27 04:51:41;;;;;;;11.95;6.57;;;14.50;99.90;;;;;;5069069;28;20483;-37
2022/06/27 04:54:08;;;;;;;10.73;6.95;;;14.50;99.90;;;;;;5069446;28;20059;-37
2022/06/27 04:56:35;;;;;;;12.43;6.93;;;14.80;99.90;;;;;;5068887;28;20044;-37
2022/06/27 04:59:01;;;;;;;12.90;7.32;;;14.60;99.90;;;;;;5068337;28;20514;-37
2022/06/27 05:01:27;;;;;;;8.35;5.85;;;14.50;99.90;;;;;;5069137;28;20086;-37
2022/06/27 05:03:53;;;;;;;15.07;7.38;;;14.60;99.90;;;;;;5068176;28;20036;-37
2022/06/27 05:06:18;;;;;;;12.45;6.28;;;15.10;99.90;;;;;;5068445;28;20052;-37
2022/06/27 05:08:44;;;;;;;10.68;6.43;;;14.70;99.90;;;;;;5068480;28;20070;-37
2022/06/27 05:11:10;;;;;;;12.20;7.10;;;14.60;99.90;;;;;;5068551;28;20131;-37
2022/06/27 05:13:36;;;;;;;11.43;5.88;;;14.90;99.90;;;;;;5069029;28;20041;-37
2022/06/27 05:16:03;;;;;;;9.52;6.35;;;15.10;99.90;;;;;;5068750;28;20071;-38
2022/06/27 05:18:28;;;;;;;7.03;5.85;;;14.70;99.90;;;;;;5068792;28;20585;-38
2022/06/27 05:20:54;;;;;;;9.95;6.93;;;15.20;99.90;;;;;;5068905;28;20139;-38
2022/06/27 05:23:20;;;;;;;10.10;6.93;;;14.80;99.90;;;;;;5068367;28;20470;-37
2022/06/27 05:25:46;;;;;;;6.60;5.40;;;14.80;99.90;;;;;;5069448;28;20040;-38
2022/06/27 05:28:11;;;;;;;10.93;6.00;;;14.90;99.90;;;;;;5068667;28;20123;-37
2022/06/27 05:30:37;;;;;;;6.55;5.68;;;15.10;99.90;;;;;;5069039;28;20516;-38
2022/06/27 05:33:03;;;;;;;7.07;5.43;;;15.30;99.90;;;;;;5068452;28;20097;-37
2022/06/27 05:35:29;;;;;;;6.60;5.00;;;15.00;99.90;;;;;;5069539;28;20094;-37
2022/06/27 05:37:55;;;;;;;7.75;5.70;;;15.00;99.90;;;;;;5068239;28;20055;-38
2022/06/27 05:40:22;;;;;;;9.40;6.45;;;15.10;99.90;;;;;;5069016;28;20397;-38
2022/06/27 05:42:49;;;;;;;18.77;8.57;;;15.20;99.90;;;;;;5068927;28;20098;-38
2022/06/27 05:45:15;;;;;;;15.88;8.07;;;15.10;99.90;;;;;;5068350;28;20051;-37
2022/06/27 05:47:42;;;;;;;15.25;8.57;;;15.40;99.90;;;;;;5068540;28;20076;-38
2022/06/27 05:50:08;;;;;;;11.60;7.80;;;15.40;99.90;;;;;;5068177;28;20140;-38
2022/06/27 05:52:35;;;;;;;11.52;7.68;;;15.40;99.90;;;;;;5068475;28;20066;-38
2022/06/27 05:55:02;;;;;;;19.65;9.85;;;15.80;99.90;;;;;;5068714;28;20098;-38
2022/06/27 05:57:28;;;;;;;11.52;8.27;;;15.70;99.90;;;;;;5068044;28;20056;-38
2022/06/27 05:59:55;;;;;;;10.77;7.68;;;15.90;99.90;;;;;;5068424;28;20041;-38
2022/06/27 06:02:23;;;;;;;14.45;7.50;;;16.30;99.90;;;;;;5067803;28;20143;-38
2022/06/27 06:04:50;;;;;;;11.80;7.18;;;16.00;99.90;;;;;;5067733;28;20178;-38
2022/06/27 06:07:16;;;;;;;16.30;8.35;;;16.10;99.90;;;;;;5066839;28;20112;-38
2022/06/27 06:09:42;;;;;;;20.90;8.52;;;16.10;99.90;;;;;;5068736;28;20044;-38
2022/06/27 06:12:12;;;;;;;6.38;5.32;;;16.10;99.90;;;;;;5068252;28;20043;-38
2022/06/27 06:14:38;;;;;;;5.82;4.97;;;16.10;99.90;;;;;;5067827;28;20044;-38
2022/06/27 06:17:05;;;;;;;7.82;6.00;;;16.10;99.90;;;;;;5066946;28;20052;-38
2022/06/27 06:19:33;;;;;;;14.32;7.65;;;16.20;99.90;;;;;;5067450;28;20119;-38
2022/06/27 06:21:59;;;;;;;7.93;4.90;;;16.30;99.90;;;;;;5065820;28;20083;-38
2022/06/27 06:24:25;;;;;;;8.00;5.20;;;16.10;99.90;;;;;;5067994;28;20076;-38
2022/06/27 06:26:55;;;;;;;17.80;7.80;;;16.20;99.90;;;;;;5067854;28;20545;-38
2022/06/27 06:29:22;;;;;;;9.50;6.03;;;16.20;99.90;;;;;;5067468;28;20394;-38
2022/06/27 06:31:48;;;;;;;15.27;7.22;;;16.20;99.90;;;;;;5067544;28;20041;-38
2022/06/27 06:34:15;;;;;;;6.70;5.15;;;16.10;99.90;;;;;;5066486;28;20116;-38
2022/06/27 06:36:42;;;;;;;6.90;5.75;;;16.10;99.90;;;;;;5066759;28;20131;-38
2022/06/27 06:39:09;;;;;;;9.93;6.25;;;16.10;99.90;;;;;;5067390;28;20154;-38
2022/06/27 06:41:36;;;;;;;14.43;6.68;;;16.10;99.90;;;;;;5066780;28;20050;-38
2022/06/27 06:44:05;;;;;;;6.72;5.90;;;16.10;99.90;;;;;;5066531;28;20516;-38
2022/06/27 06:46:32;;;;;;;8.52;5.72;;;16.10;99.90;;;;;;5066973;28;20048;-37
2022/06/27 06:49:06;;;;;;;6.60;5.38;;;16.10;99.90;;;;;;5066679;28;20033;-38
2022/06/27 06:51:34;;;;;;;8.68;5.95;;;16.40;99.90;;;;;;5066788;28;20064;-38
2022/06/27 06:54:01;;;;;;;5.57;5.07;;;16.10;99.90;;;;;;5067689;28;20036;-38
2022/06/27 06:56:28;;;;;;;8.52;6.35;;;16.10;99.90;;;;;;5066696;28;20063;-37
2022/06/27 06:58:54;;;;;;;9.50;6.22;;;16.20;99.90;;;;;;5067589;28;20040;-38
2022/06/27 07:01:20;;;;;;;11.48;6.63;;;16.20;99.90;;;;;;5066539;28;20072;-38
2022/06/27 07:03:48;;;;;;;19.98;8.45;;;16.50;99.90;;;;;;5066368;28;20658;-38
2022/06/27 07:06:15;;;;;;;8.13;6.10;;;16.20;99.90;;;;;;5066050;28;20106;-38
2022/06/27 07:08:41;;;;;;;9.13;6.53;;;16.40;99.90;;;;;;5066952;28;20048;-38
2022/06/27 07:11:07;;;;;;;7.18;5.88;;;16.50;99.90;;;;;;5066795;28;20048;-38
2022/06/27 07:13:33;;;;;;;10.85;6.65;;;16.50;99.90;;;;;;5066413;28;20075;-38
2022/06/27 07:15:59;;;;;;;11.07;5.78;;;16.70;99.90;;;;;;5066689;28;20507;-38
2022/06/27 07:18:25;;;;;;;12.27;6.85;;;17.00;99.90;;;;;;5066227;28;20056;-38
2022/06/27 07:20:52;;;;;;;6.03;5.00;;;16.50;99.90;;;;;;5066626;28;20122;-38
2022/06/27 07:23:21;;;;;;;11.77;5.82;;;16.90;99.90;;;;;;5066772;28;20119;-38
2022/06/27 07:25:47;;;;;;;20.25;8.25;;;16.90;99.90;;;;;;5066472;28;20048;-38
2022/06/27 07:28:12;;;;;;;6.40;5.22;;;16.40;99.90;;;;;;5066447;28;20486;-38
2022/06/27 07:30:40;;;;;;;15.75;7.78;;;16.50;99.90;;;;;;5066334;28;20053;-38
2022/06/27 07:33:07;;;;;;;11.95;6.65;;;16.40;99.90;;;;;;5066554;28;20044;-38
2022/06/27 07:35:33;;;;;;;9.35;6.25;;;16.40;99.90;;;;;;5065329;28;20045;-38
2022/06/27 07:38:00;;;;;;;10.50;6.88;;;16.50;99.90;;;;;;5066574;28;20045;-38
2022/06/27 07:40:25;;;;;;;9.10;6.93;;;16.50;99.90;;;;;;5066450;28;20044;-38
2022/06/27 07:42:53;;;;;;;20.02;8.48;;;16.50;99.90;;;;;;5065873;28;20044;-38
2022/06/27 07:45:21;;;;;;;8.82;6.10;;;16.70;99.90;;;;;;5066203;28;20045;-38
2022/06/27 07:47:47;;;;;;;8.77;6.05;;;17.20;99.90;;;;;;5065966;28;20136;-38
2022/06/27 07:50:36;;;;;;;20.40;9.00;;;16.80;99.90;;;;;;5066034;28;20115;-38
2022/06/27 07:53:13;;;;;;;5.95;5.32;;;17.00;99.90;;;;;;5065396;28;20044;-38
2022/06/27 07:55:43;;;;;;;9.80;6.63;;;16.90;99.90;;;;;;5065729;28;20436;-42
2022/06/27 07:58:14;;;;;;;9.82;6.75;;;17.10;99.90;;;;;;5065440;28;20431;-38
2022/06/27 08:00:43;;;;;;;13.63;6.97;;;16.80;99.90;;;;;;5065876;28;20478;-38
2022/06/27 08:05:54;;;;;;;48.45;13.32;;;17.00;99.90;;;;;;5065300;28;20600;-38
2022/06/27 08:08:24;;;;;;;19.05;8.40;;;17.40;99.90;;;;;;5065650;28;20055;-38
2022/06/27 08:10:51;;;;;;;8.25;5.90;;;17.70;99.90;;;;;;5065781;28;20041;-38
2022/06/27 08:13:17;;;;;;;12.50;7.35;;;17.80;99.90;;;;;;5065877;28;20055;-38
2022/06/27 08:15:44;;;;;;;15.63;8.15;;;16.10;99.90;;;;;;5064375;28;20037;-38
2022/06/27 08:18:10;;;;;;;8.13;5.78;;;18.00;99.90;;;;;;5065885;28;20044;-38
2022/06/27 08:20:37;;;;;;;13.38;7.55;;;18.10;99.90;;;;;;5065416;28;20047;-38
2022/06/27 08:23:03;;;;;;;18.08;7.88;;;18.00;99.90;;;;;;5065591;28;20402;-38
2022/06/27 08:25:29;;;;;;;19.40;7.88;;;17.90;99.90;;;;;;5066135;28;20040;-39
2022/06/27 08:27:55;;;;;;;7.63;5.43;;;17.90;99.90;;;;;;5065977;28;20131;-38
2022/06/27 08:30:25;;;;;;;9.43;6.68;;;17.90;99.90;;;;;;5064981;28;20044;-38
2022/06/27 08:32:55;;;;;;;7.47;5.80;;;17.80;99.90;;;;;;5065772;28;20083;-38
2022/06/27 08:35:24;;;;;;;14.45;8.55;;;17.90;99.90;;;;;;5065550;28;20040;-38
2022/06/27 08:37:51;;;;;;;7.20;6.50;;;18.00;99.90;;;;;;5065817;28;20481;-39
2022/06/27 08:40:21;;;;;;;7.90;7.10;;;18.10;99.90;;;;;;5065698;28;20542;-38
2022/06/27 08:42:48;;;;;;;9.32;7.10;;;18.20;99.90;;;;;;5067802;28;20068;-38
2022/06/27 08:45:15;;;;;;;9.88;7.70;;;18.20;99.90;;;;;;5069513;28;20044;-38
2022/06/27 08:47:42;;;;;;;9.82;8.30;;;18.20;99.90;;;;;;5068734;28;20220;-38
2022/06/27 08:50:09;;;;;;;8.30;6.75;;;18.20;99.90;;;;;;5068652;28;20044;-38
2022/06/27 08:52:39;;;;;;;6.75;6.05;;;18.10;99.90;;;;;;5069327;28;20045;-38
2022/06/27 08:55:08;;;;;;;8.13;6.00;;;17.90;99.90;;;;;;5070225;28;20041;-38
2022/06/27 08:57:41;;;;;;;7.22;6.53;;;17.80;99.90;;;;;;5069522;28;20372;-38
2022/06/27 09:00:08;;;;;;;8.23;7.43;;;17.80;99.90;;;;;;5069903;28;20059;-38
2022/06/27 09:02:42;;;;;;;19.55;11.55;;;17.90;99.90;;;;;;5069501;28;20041;-38
2022/06/27 09:05:24;;;;;;;8.50;7.70;;;18.00;99.90;;;;;;5069567;28;20607;-38
2022/06/27 09:08:01;;;;;;;8.45;7.25;;;18.00;99.90;;;;;;5069653;28;20052;-38
2022/06/27 09:10:46;;;;;;;7.72;7.00;;;17.90;99.90;;;;;;5069444;28;20045;-38
2022/06/27 09:13:17;;;;;;;6.60;5.88;;;17.80;99.90;;;;;;5037687;28;20075;-37
2022/06/27 09:15:52;;;;;;;7.18;6.47;;;17.70;99.90;;;;;;5067286;28;20051;-37
2022/06/27 09:18:26;;;;;;;7.75;5.88;;;17.70;99.90;;;;;;5066530;28;20049;-37
2022/06/27 09:20:59;;;;;;;7.15;6.40;;;17.60;99.90;;;;;;5067021;28;20048;-37
2022/06/27 09:23:49;;;;;;;10.85;7.18;;;17.60;99.90;;;;;;5067361;28;20629;-37
2022/06/27 09:26:30;;;;;;;18.85;7.45;;;17.50;99.90;;;;;;5066806;28;20105;-38
2022/06/27 09:28:56;;;;;;;7.88;7.00;;;17.50;99.90;;;;;;5066580;28;20036;-37
2022/06/27 09:31:31;;;;;;;7.25;6.50;;;17.40;99.90;;;;;;5066057;28;20660;-37
2022/06/27 09:34:14;;;;;;;9.05;7.20;;;17.40;99.90;;;;;;5066136;28;20044;-37
2022/06/27 09:36:50;;;;;;;8.40;7.45;;;17.40;99.90;;;;;;5066533;28;20128;-37
2022/06/27 09:39:21;;;;;;;7.40;6.32;;;17.30;99.90;;;;;;5064957;28;20040;-39
2022/06/27 09:41:58;;;;;;;9.05;8.15;;;17.30;99.90;;;;;;5065318;28;20394;-38
2022/06/27 09:44:27;;;;;;;8.95;7.75;;;17.30;99.90;;;;;;5065709;28;20046;-39
2022/06/27 09:47:04;;;;;;;9.38;8.38;;;17.30;99.90;;;;;;5065353;28;20101;-41
2022/06/27 09:49:39;;;;;;;11.18;9.65;;;17.30;99.90;;;;;;5064980;28;20036;-40
2022/06/27 09:52:10;;;;;;;9.45;8.45;;;17.40;99.90;;;;;;5065312;28;20041;-38
2022/06/27 09:54:39;;;;;;;14.07;9.82;;;17.60;99.90;;;;;;5063172;28;20143;-39
2022/06/27 09:57:07;;;;;;;11.20;10.05;;;17.70;99.90;;;;;;5064641;28;20118;-44
2022/06/27 09:59:33;;;;;;;11.15;9.98;;;17.90;99.90;;;;;;5062949;28;20040;-42
2022/06/27 10:02:00;;;;;;;20.92;11.95;;;18.00;99.90;;;;;;5065416;28;20036;-40
2022/06/27 10:04:27;;;;;;;11.32;10.05;;;18.00;99.90;;;;;;5066423;28;20033;-43
2022/06/27 10:06:55;;;;;;;18.67;11.73;;;18.00;99.90;;;;;;5065198;28;20854;-40
2022/06/27 10:09:24;;;;;;;10.98;9.88;;;18.00;99.90;;;;;;5065212;28;20067;-41
2022/06/27 10:12:23;;;;;;;8.32;7.63;;;18.20;99.90;;;;;;5054070;28;20086;-43
2022/06/27 10:15:10;;;;;;;9.10;8.23;;;17.90;99.90;;;;;;5044850;28;20045;-40
2022/06/27 10:17:37;;;;;;;7.00;6.30;;;17.90;99.90;;;;;;5045763;28;20067;-41
2022/06/27 10:20:12;;;;;;;10.65;9.65;;;17.90;99.90;;;;;;5046341;28;20041;-42
2022/06/27 10:22:39;;;;;;;9.50;8.70;;;17.90;99.90;;;;;;5045476;28;20718;-43
2022/06/27 10:25:27;;;;;;;11.27;10.18;;;18.10;99.90;;;;;;5045413;28;20076;-43
2022/06/27 10:28:11;;;;;;;9.20;8.18;;;18.20;99.90;;;;;;5045989;28;20045;-41
2022/06/27 10:30:44;;;;;;;8.73;7.97;;;18.30;99.90;;;;;;5045958;28;20124;-43
2022/06/27 10:33:24;;;;;;;8.23;7.53;;;18.40;99.90;;;;;;5045861;28;20130;-40
2022/06/27 10:36:10;;;;;;;8.88;8.00;;;18.60;99.90;;;;;;5045782;28;20068;-42
2022/06/27 10:38:39;;;;;;;8.95;8.05;;;18.60;99.90;;;;;;5045772;28;20049;-42
2022/06/27 10:41:07;;;;;;;8.80;8.00;;;18.80;99.90;;;;;;5045362;28;20045;-42
2022/06/27 10:43:36;;;;;;;8.60;7.72;;;18.80;99.90;;;;;;5044720;28;20071;-42
2022/06/27 10:46:22;;;;;;;7.72;7.03;;;18.80;99.90;;;;;;5045345;28;20045;-42
2022/06/27 10:48:58;;;;;;;6.60;5.95;;;18.80;99.90;;;;;;5043558;28;20053;-43
2022/06/27 10:51:26;;;;;;;6.07;5.25;;;18.80;99.90;;;;;;5045266;28;20056;-42
2022/06/27 10:54:12;;;;;;;6.60;5.97;;;18.80;99.90;;;;;;5044292;28;20119;-39
2022/06/27 10:56:51;;;;;;;5.90;4.78;;;18.80;99.90;;;;;;5044069;28;20044;-39
2022/06/27 10:59:16;;;;;;;6.53;5.93;;;18.70;99.90;;;;;;5044739;28;20091;-40
2022/06/27 11:02:02;;;;;;;6.38;5.78;;;18.70;99.90;;;;;;5044571;28;20091;-40
2022/06/27 11:04:29;;;;;;;7.25;5.28;;;18.80;99.90;;;;;;5037877;28;20045;-41
2022/06/27 11:06:59;;;;;;;5.63;4.28;;;18.90;99.90;;;;;;5043686;28;20064;-41
2022/06/27 11:09:35;;;;;;;4.47;4.07;;;18.80;99.90;;;;;;5042947;28;20055;-41
2022/06/27 11:12:01;;;;;;;5.40;4.90;;;18.80;99.90;;;;;;5026651;28;20107;-41
2022/06/27 11:14:26;;;;;;;5.07;4.55;;;18.90;99.90;;;;;;5046825;28;20433;-41
2022/06/27 11:16:52;;;;;;;4.35;3.58;;;18.90;99.90;;;;;;5046809;28;20045;-41
2022/06/27 11:22:21;;;;;;;5.28;4.05;;;19.20;99.90;;;;;;5046161;28;20060;-41
2022/06/27 11:24:50;;;;;;;4.00;3.00;;;19.30;99.90;;;;;;5047532;28;20044;-43
2022/06/27 11:27:16;;;;;;;3.25;2.97;;;19.50;99.90;;;;;;5046150;28;20056;-42
2022/06/27 11:32:33;;;;;;;4.30;3.47;;;19.70;99.90;;;;;;5047204;28;20105;-41
2022/06/27 11:34:59;;;;;;;5.32;2.72;;;19.60;99.90;;;;;;5046864;28;20037;-42
2022/06/27 11:37:30;;;;;;;4.80;2.47;;;19.60;99.90;;;;;;5045556;28;20106;-42
2022/06/27 11:40:01;;;;;;;3.80;2.10;;;19.50;99.90;;;;;;5045243;28;20111;-42
2022/06/27 11:42:32;;;;;;;2.60;1.87;;;19.70;99.90;;;;;;5045974;28;20045;-44
2022/06/27 11:45:05;;;;;;;1.83;1.40;;;19.90;99.90;;;;;;5043898;28;20049;-42
2022/06/27 11:47:34;;;;;;;2.17;1.60;;;19.90;99.90;;;;;;5044378;28;20067;-41
2022/06/27 11:50:11;;;;;;;2.05;1.45;;;20.00;99.90;;;;;;5036732;28;20095;-43
2022/06/27 11:52:38;;;;;;;2.80;1.23;;;20.10;99.90;;;;;;5041862;28;20782;-42
2022/06/27 11:55:13;;;;;;;6.10;1.98;;;20.00;99.90;;;;;;5042222;28;20052;-42
2022/06/27 11:57:45;;;;;;;3.15;1.85;;;20.00;99.90;;;;;;5044221;28;20037;-39
2022/06/27 12:00:17;;;;;;;2.40;1.70;;;20.20;99.90;;;;;;5033602;28;20111;-41
2022/06/27 12:02:44;;;;;;;3.55;2.63;;;20.00;99.90;;;;;;5039782;28;20072;-40
2022/06/27 12:05:13;;;;;;;2.65;1.70;;;20.00;99.90;;;;;;5043435;28;20521;-38
2022/06/27 12:08:07;;;;;;;3.67;2.00;;;20.10;99.90;;;;;;5043496;28;20411;-38
2022/06/27 12:10:45;;;;;;;2.30;1.80;;;20.00;99.90;;;;;;5043464;28;20645;-39
2022/06/27 12:13:15;;;;;;;2.08;1.80;;;19.90;99.90;;;;;;5023976;28;20053;-39
2022/06/27 12:15:46;;;;;;;1.67;1.48;;;19.80;99.90;;;;;;5043162;28;20045;-41
2022/06/27 12:18:13;;;;;;;4.03;1.85;;;19.70;99.90;;;;;;5047121;28;20843;-43
2022/06/27 12:20:41;;;;;;;3.35;2.40;;;19.50;99.90;;;;;;5047670;28;20040;-39
2022/06/27 12:23:07;;;;;;;2.88;2.03;;;19.50;99.90;;;;;;5047545;28;20056;-40
2022/06/27 12:25:35;;;;;;;3.97;1.58;;;19.50;99.90;;;;;;5046503;28;20134;-38
2022/06/27 12:28:05;;;;;;;2.63;2.00;;;19.50;99.90;;;;;;5047536;28;20053;-39
2022/06/27 12:30:32;;;;;;;4.30;2.38;;;19.60;99.90;;;;;;5046985;28;20783;-39
2022/06/27 12:32:58;;;;;;;3.13;2.15;;;19.70;99.90;;;;;;5046770;28;20049;-38
2022/06/27 12:35:24;;;;;;;3.92;2.30;;;19.80;99.90;;;;;;5047760;28;20049;-42
2022/06/27 12:37:50;;;;;;;3.60;2.50;;;19.90;99.90;;;;;;5047267;28;20061;-39
2022/06/27 12:40:16;;;;;;;2.53;2.05;;;19.90;99.90;;;;;;5046570;28;20049;-37
2022/06/27 12:42:41;;;;;;;2.88;2.50;;;19.90;99.90;;;;;;5046125;28;20040;-38
2022/06/27 12:45:07;;;;;;;3.72;2.17;;;20.00;99.90;;;;;;5046767;28;20054;-43
2022/06/27 12:47:33;;;;;;;3.20;2.38;;;20.00;99.90;;;;;;5046997;28;20515;-37
2022/06/27 12:49:59;;;;;;;4.13;2.75;;;19.80;99.90;;;;;;5045805;28;20036;-37
2022/06/27 12:52:25;;;;;;;4.38;3.50;;;19.70;99.90;;;;;;5046540;28;20045;-37
2022/06/27 12:54:50;;;;;;;4.30;2.90;;;19.60;99.90;;;;;;5044770;28;20049;-38